createdAt,value
2022-12-01T00:01:20.863Z,4.37
2022-12-01T00:03:49.009Z,4.38
2022-12-01T00:06:19.584Z,4.45
2022-12-01T00:09:03.339Z,4.49
2022-12-01T00:11:33.188Z,4.55
2022-12-01T00:14:06.304Z,4.44
2022-12-01T00:16:37.306Z,4.40
2022-12-01T00:19:05.317Z,4.57
2022-12-01T00:21:33.221Z,4.47
2022-12-01T00:24:01.140Z,4.44
2022-12-01T00:26:29.035Z,4.40
2022-12-01T00:29:00.547Z,4.50
2022-12-01T00:31:28.930Z,4.57
2022-12-01T00:33:57.064Z,4.59
2022-12-01T00:36:25.390Z,4.43
2022-12-01T00:38:53.945Z,4.55
2022-12-01T00:41:22.189Z,4.49
2022-12-01T00:43:51.189Z,4.45
2022-12-01T00:46:20.512Z,4.48
2022-12-01T00:48:48.603Z,4.64
2022-12-01T00:51:16.513Z,4.71
2022-12-01T00:53:44.464Z,4.62
2022-12-01T00:56:12.394Z,4.59
2022-12-01T00:58:40.290Z,4.56
2022-12-01T01:01:08.485Z,4.55
2022-12-01T01:03:37.883Z,4.53
2022-12-01T01:06:07.283Z,4.72
2022-12-01T01:08:35.549Z,4.57
2022-12-01T01:11:03.767Z,4.62
2022-12-01T01:13:32.105Z,4.67
2022-12-01T01:16:00.899Z,4.68
2022-12-01T01:18:29.318Z,4.69
2022-12-01T01:21:00.187Z,4.65
2022-12-01T01:23:28.449Z,4.70
2022-12-01T01:26:03.226Z,4.71
2022-12-01T01:28:32.286Z,4.76
2022-12-01T01:31:00.608Z,4.25
2022-12-01T01:33:28.569Z,4.56
2022-12-01T01:36:01.345Z,4.78
2022-12-01T01:38:29.665Z,4.85
2022-12-01T01:40:57.645Z,4.78
2022-12-01T01:43:41.685Z,4.52
2022-12-01T01:46:12.679Z,4.73
2022-12-01T01:48:43.535Z,4.79
2022-12-01T01:51:15.633Z,4.82
2022-12-01T01:53:45.910Z,4.89
2022-12-01T01:56:13.910Z,4.88
2022-12-01T01:58:42.679Z,4.80
2022-12-01T02:01:10.613Z,4.82
2022-12-01T02:03:41.934Z,4.91
2022-12-01T02:06:13.768Z,5.01
2022-12-01T02:08:41.830Z,4.76
2022-12-01T02:11:35.045Z,4.78
2022-12-01T02:14:10.719Z,4.66
2022-12-01T02:16:47.198Z,4.71
2022-12-01T02:19:42.197Z,4.81
2022-12-01T02:22:23.449Z,4.90
2022-12-01T02:25:19.488Z,4.93
2022-12-01T02:28:21.452Z,4.75
2022-12-01T02:30:55.724Z,4.67
2022-12-01T02:33:30.537Z,4.60
2022-12-01T02:36:05.199Z,4.79
2022-12-01T02:38:40.356Z,4.89
2022-12-01T02:41:16.073Z,4.66
2022-12-01T02:43:53.072Z,4.52
2022-12-01T02:46:28.459Z,4.69
2022-12-01T02:49:00.602Z,4.83
2022-12-01T02:51:31.835Z,4.93
2022-12-01T02:54:02.526Z,4.81
2022-12-01T02:56:30.617Z,4.84
2022-12-01T02:58:58.524Z,4.84
2022-12-01T03:01:41.509Z,4.69
2022-12-01T03:04:27.388Z,4.72
2022-12-01T03:07:06.026Z,4.66
2022-12-01T03:09:44.980Z,4.56
2022-12-01T03:12:22.005Z,4.59
2022-12-01T03:15:03.380Z,4.50
2022-12-01T03:17:40.017Z,4.74
2022-12-01T03:20:13.877Z,4.70
2022-12-01T03:22:47.802Z,4.52
2022-12-01T03:25:16.788Z,4.72
2022-12-01T03:28:13.877Z,4.64
2022-12-01T03:30:37.955Z,4.61
2022-12-01T03:33:12.760Z,4.71
2022-12-01T03:35:44.858Z,4.59
2022-12-01T03:38:19.131Z,4.65
2022-12-01T03:40:50.090Z,4.78
2022-12-01T03:43:22.439Z,4.67
2022-12-01T03:45:57.537Z,4.61
2022-12-01T03:48:28.280Z,4.63
2022-12-01T03:51:14.083Z,4.89
2022-12-01T03:53:51.884Z,4.88
2022-12-01T03:56:22.707Z,4.91
2022-12-01T03:58:54.148Z,4.85
2022-12-01T04:01:22.587Z,4.80
2022-12-01T04:03:51.958Z,4.80
2022-12-01T04:06:20.120Z,4.65
2022-12-01T04:08:48.022Z,4.75
2022-12-01T04:11:33.438Z,4.81
2022-12-01T04:14:01.422Z,4.66
2022-12-01T04:16:29.336Z,4.80
2022-12-01T04:18:58.686Z,4.80
2022-12-01T04:21:26.646Z,4.76
2022-12-01T04:24:03.572Z,4.72
2022-12-01T04:26:33.761Z,4.72
2022-12-01T04:29:02.314Z,4.84
2022-12-01T04:31:30.459Z,4.65
2022-12-01T04:34:00.603Z,4.56
2022-12-01T04:36:31.322Z,4.61
2022-12-01T04:38:59.510Z,4.89
2022-12-01T04:41:27.682Z,5.07
2022-12-01T04:43:55.870Z,5.07
2022-12-01T04:46:24.419Z,5.13
2022-12-01T04:48:53.170Z,5.02
2022-12-01T04:51:23.200Z,5.06
2022-12-01T04:53:51.318Z,5.15
2022-12-01T04:56:19.374Z,5.02
2022-12-01T04:58:47.538Z,5.10
2022-12-01T05:01:17.821Z,5.18
2022-12-01T05:03:49.416Z,5.05
2022-12-01T05:06:19.329Z,5.14
2022-12-01T05:08:49.407Z,4.85
2022-12-01T05:11:17.974Z,4.69
2022-12-01T05:13:47.393Z,4.83
2022-12-01T05:16:16.673Z,4.83
2022-12-01T05:18:48.113Z,4.84
2022-12-01T05:21:15.204Z,4.88
2022-12-01T05:23:44.639Z,4.95
2022-12-01T05:26:13.922Z,4.75
2022-12-01T05:28:42.035Z,4.74
2022-12-01T05:31:09.936Z,4.89
2022-12-01T05:33:37.871Z,4.62
2022-12-01T05:36:06.560Z,4.65
2022-12-01T05:38:34.566Z,4.62
2022-12-01T05:41:02.455Z,4.76
2022-12-01T05:43:31.751Z,4.41
2022-12-01T05:46:00.596Z,4.54
2022-12-01T05:48:28.878Z,4.37
2022-12-01T05:50:56.825Z,4.68
2022-12-01T05:53:24.735Z,4.57
2022-12-01T05:55:54.404Z,4.74
2022-12-01T05:58:22.426Z,4.88
2022-12-01T06:00:51.691Z,4.49
2022-12-01T06:03:19.709Z,4.65
2022-12-01T06:05:47.759Z,4.72
2022-12-01T06:08:15.681Z,4.50
2022-12-01T06:10:43.826Z,4.55
2022-12-01T06:13:11.893Z,4.53
2022-12-01T06:15:39.802Z,4.43
2022-12-01T06:18:09.083Z,4.66
2022-12-01T06:20:37.075Z,4.85
2022-12-01T06:23:05.357Z,4.85
2022-12-01T06:25:33.740Z,4.52
2022-12-01T06:28:02.545Z,4.77
2022-12-01T06:30:30.463Z,4.79
2022-12-01T06:32:58.406Z,4.61
2022-12-01T06:35:27.705Z,4.70
2022-12-01T06:37:55.624Z,4.63
2022-12-01T06:40:23.801Z,4.64
2022-12-01T06:42:51.739Z,4.89
2022-12-01T06:45:19.802Z,4.96
2022-12-01T06:47:48.477Z,4.76
2022-12-01T06:50:16.436Z,4.73
2022-12-01T06:52:45.798Z,4.62
2022-12-01T06:55:13.853Z,4.72
2022-12-01T06:57:43.350Z,4.68
2022-12-01T07:00:14.000Z,4.60
2022-12-01T07:02:42.310Z,4.88
2022-12-01T07:05:11.057Z,4.84
2022-12-01T07:07:40.377Z,4.80
2022-12-01T07:10:11.244Z,4.84
2022-12-01T07:12:39.409Z,4.87
2022-12-01T07:15:08.993Z,5.00
2022-12-01T07:17:37.723Z,5.07
2022-12-01T07:20:06.579Z,4.96
2022-12-01T07:22:34.670Z,5.08
2022-12-01T07:25:02.633Z,5.09
2022-12-01T07:27:32.662Z,4.90
2022-12-01T07:30:00.636Z,4.76
2022-12-01T07:32:28.605Z,4.90
2022-12-01T07:34:56.533Z,4.39
2022-12-01T07:37:24.456Z,4.64
2022-12-01T07:39:52.431Z,4.65
2022-12-01T07:42:20.352Z,4.65
2022-12-01T07:44:49.584Z,4.84
2022-12-01T07:47:17.498Z,4.73
2022-12-01T07:49:49.703Z,4.60
2022-12-01T07:52:18.155Z,4.63
2022-12-01T07:54:46.084Z,4.81
2022-12-01T07:57:15.013Z,4.74
2022-12-01T07:59:42.863Z,4.77
2022-12-01T08:02:12.464Z,4.74
2022-12-01T08:04:40.444Z,4.48
2022-12-01T08:07:08.343Z,4.69
2022-12-01T08:09:36.408Z,4.93
2022-12-01T08:12:04.597Z,4.64
2022-12-01T08:14:32.554Z,4.63
2022-12-01T08:17:00.491Z,4.57
2022-12-01T08:19:29.723Z,4.46
2022-12-01T08:21:58.338Z,4.66
2022-12-01T08:24:26.686Z,4.68
2022-12-01T08:26:54.609Z,4.44
2022-12-01T08:29:22.556Z,4.39
2022-12-01T08:31:50.572Z,4.55
2022-12-01T08:34:18.664Z,4.83
2022-12-01T08:36:48.328Z,4.77
2022-12-01T08:39:16.393Z,4.96
2022-12-01T08:41:44.336Z,5.01
2022-12-01T08:44:12.488Z,4.83
2022-12-01T08:46:40.540Z,4.71
2022-12-01T08:49:08.533Z,5.00
2022-12-01T08:51:37.413Z,4.84
2022-12-01T08:54:06.920Z,4.69
2022-12-01T08:56:36.926Z,4.82
2022-12-01T08:59:05.755Z,4.81
2022-12-01T09:01:34.022Z,4.99
2022-12-01T09:04:08.258Z,4.93
2022-12-01T09:06:40.533Z,4.85
2022-12-01T09:09:11.269Z,4.82
2022-12-01T09:11:39.255Z,4.94
2022-12-01T09:14:07.326Z,4.83
2022-12-01T09:16:35.552Z,5.08
2022-12-01T09:19:03.525Z,4.87
2022-12-01T09:21:33.620Z,4.69
2022-12-01T09:24:02.651Z,4.70
2022-12-01T09:26:32.867Z,4.57
2022-12-01T09:29:03.487Z,4.87
2022-12-01T09:31:31.790Z,4.99
2022-12-01T09:34:01.498Z,5.12
2022-12-01T09:36:30.940Z,5.08
2022-12-01T09:38:59.343Z,5.13
2022-12-01T09:41:30.426Z,4.93
2022-12-01T09:44:05.838Z,4.60
2022-12-01T09:46:41.858Z,4.81
2022-12-01T09:49:16.685Z,5.02
2022-12-01T09:51:44.751Z,4.91
2022-12-01T09:54:15.624Z,4.96
2022-12-01T09:56:47.106Z,5.15
2022-12-01T09:59:22.662Z,4.95
2022-12-01T10:01:54.567Z,5.22
2022-12-01T10:04:35.896Z,5.03
2022-12-01T10:07:07.413Z,5.00
2022-12-01T10:09:42.305Z,5.39
2022-12-01T10:12:15.855Z,5.27
2022-12-01T10:14:47.566Z,5.12
2022-12-01T10:17:28.573Z,5.00
2022-12-01T10:20:04.243Z,5.20
2022-12-01T10:23:07.414Z,5.14
2022-12-01T10:25:47.137Z,5.20
2022-12-01T10:28:43.640Z,5.06
2022-12-01T10:31:19.521Z,4.96
2022-12-01T10:33:58.169Z,4.98
2022-12-01T10:36:27.304Z,4.75
2022-12-01T10:38:55.913Z,4.45
2022-12-01T10:41:28.001Z,4.71
2022-12-01T10:44:00.830Z,4.79
2022-12-01T10:46:36.939Z,4.61
2022-12-01T10:49:09.892Z,4.83
2022-12-01T10:51:54.222Z,4.75
2022-12-01T10:54:24.320Z,5.02
2022-12-01T10:56:56.966Z,4.74
2022-12-01T10:59:29.277Z,5.00
2022-12-01T11:01:59.828Z,5.04
2022-12-01T11:04:37.516Z,4.80
2022-12-01T11:07:06.055Z,4.55
2022-12-01T11:09:34.004Z,4.59
2022-12-01T11:12:03.697Z,4.85
2022-12-01T11:14:42.572Z,5.06
2022-12-01T11:17:28.122Z,5.12
2022-12-01T11:19:56.174Z,5.32
2022-12-01T11:22:30.697Z,5.32
2022-12-01T11:25:02.287Z,5.07
2022-12-01T11:27:34.328Z,5.27
2022-12-01T11:30:05.906Z,5.07
2022-12-01T11:32:38.162Z,5.26
2022-12-01T11:35:17.049Z,5.14
2022-12-01T11:38:13.332Z,5.04
2022-12-01T11:40:45.598Z,5.17
2022-12-01T11:43:25.187Z,5.09
2022-12-01T11:45:54.742Z,5.35
2022-12-01T11:48:29.469Z,5.31
2022-12-01T11:51:06.905Z,5.29
2022-12-01T11:53:37.676Z,5.01
2022-12-01T11:56:17.931Z,5.09
2022-12-01T11:58:48.737Z,5.19
2022-12-01T12:01:31.494Z,5.13
2022-12-01T12:04:13.404Z,5.43
2022-12-01T12:06:49.662Z,5.50
2022-12-01T12:09:33.351Z,5.57
2022-12-01T12:12:12.317Z,5.36
2022-12-01T12:14:54.588Z,5.20
2022-12-01T12:17:36.627Z,5.00
2022-12-01T12:20:30.656Z,5.11
2022-12-01T12:23:24.743Z,5.11
2022-12-01T12:26:03.563Z,4.80
2022-12-01T12:29:14.679Z,4.76
2022-12-01T12:31:53.669Z,4.97
2022-12-01T12:34:40.774Z,5.16
2022-12-01T12:37:20.982Z,5.22
2022-12-01T12:40:23.364Z,5.40
2022-12-01T12:43:04.940Z,5.11
2022-12-01T12:45:41.701Z,5.21
2022-12-01T12:48:24.801Z,5.17
2022-12-01T12:51:01.858Z,4.97
2022-12-01T12:53:38.443Z,5.25
2022-12-01T12:56:11.243Z,5.06
2022-12-01T12:58:43.099Z,4.83
2022-12-01T13:01:17.093Z,4.95
2022-12-01T13:03:52.750Z,4.82
2022-12-01T13:06:27.247Z,4.78
2022-12-01T13:09:00.418Z,4.52
2022-12-01T13:11:33.593Z,4.28
2022-12-01T13:14:07.269Z,4.92
2022-12-01T13:16:39.387Z,5.27
2022-12-01T13:19:15.180Z,4.93
2022-12-01T13:21:44.931Z,4.90
2022-12-01T13:24:23.064Z,5.18
2022-12-01T13:26:56.490Z,5.30
2022-12-01T13:29:27.163Z,4.97
2022-12-01T13:31:56.152Z,4.79
2022-12-01T13:34:27.450Z,5.06
2022-12-01T13:36:56.776Z,5.06
2022-12-01T13:39:28.767Z,4.73
2022-12-01T13:42:07.069Z,4.92
2022-12-01T13:44:41.511Z,4.64
2022-12-01T13:47:32.233Z,4.45
2022-12-01T13:50:54.589Z,4.40
2022-12-01T13:53:29.259Z,4.48
2022-12-01T13:56:07.615Z,4.72
2022-12-01T13:58:46.237Z,4.52
2022-12-01T14:01:56.861Z,4.54
2022-12-01T14:04:30.741Z,4.15
2022-12-01T14:07:20.556Z,4.73
2022-12-01T14:09:52.049Z,4.70
2022-12-01T14:12:23.144Z,4.79
2022-12-01T14:14:55.428Z,4.67
2022-12-01T14:17:27.742Z,4.74
2022-12-01T14:19:57.274Z,4.42
2022-12-01T14:22:35.008Z,4.99
2022-12-01T14:25:07.769Z,4.95
2022-12-01T14:27:38.795Z,5.05
2022-12-01T14:30:45.897Z,5.04
2022-12-01T14:33:43.307Z,4.82
2022-12-01T14:36:20.281Z,5.13
2022-12-01T14:38:49.532Z,5.17
2022-12-01T14:41:23.958Z,5.16
2022-12-01T14:44:05.748Z,5.31
2022-12-01T14:46:42.310Z,5.19
2022-12-01T14:49:15.396Z,4.99
2022-12-01T14:51:47.117Z,5.17
2022-12-01T14:54:23.472Z,5.20
2022-12-01T14:56:55.239Z,5.26
2022-12-01T14:59:26.404Z,5.26
2022-12-01T15:01:57.384Z,5.19
2022-12-01T15:04:26.220Z,5.36
2022-12-01T15:06:56.483Z,5.17
2022-12-01T15:09:35.126Z,5.23
2022-12-01T15:12:08.021Z,5.19
2022-12-01T15:14:37.520Z,5.19
2022-12-01T15:17:09.062Z,5.13
2022-12-01T15:19:40.332Z,4.86
2022-12-01T15:22:13.764Z,4.81
2022-12-01T15:24:42.946Z,4.71
2022-12-01T15:27:27.058Z,4.36
2022-12-01T15:29:55.826Z,4.75
2022-12-01T15:32:25.038Z,4.82
2022-12-01T15:34:55.175Z,5.02
2022-12-01T15:37:25.790Z,5.23
2022-12-01T15:40:00.309Z,5.01
2022-12-01T15:42:41.489Z,4.78
2022-12-01T15:45:19.233Z,4.82
2022-12-01T15:47:49.093Z,4.97
2022-12-01T15:50:33.532Z,5.05
2022-12-01T15:53:04.192Z,4.96
2022-12-01T15:55:35.378Z,4.84
2022-12-01T15:58:09.043Z,4.91
2022-12-01T16:00:37.239Z,4.98
2022-12-01T16:03:05.715Z,5.05
2022-12-01T16:05:36.560Z,4.96
2022-12-01T16:08:15.957Z,4.84
2022-12-01T16:10:44.212Z,4.69
2022-12-01T16:13:40.391Z,4.35
2022-12-01T16:16:37.882Z,4.80
2022-12-01T16:19:23.996Z,4.76
2022-12-01T16:21:55.732Z,4.63
2022-12-01T16:24:27.864Z,4.42
2022-12-01T16:26:58.325Z,4.50
2022-12-01T16:29:29.564Z,4.40
2022-12-01T16:32:20.344Z,4.70
2022-12-01T16:34:49.300Z,4.52
2022-12-01T16:37:18.086Z,4.94
2022-12-01T16:39:46.020Z,4.75
2022-12-01T16:42:16.495Z,4.75
2022-12-01T16:44:46.694Z,4.89
2022-12-01T16:47:17.495Z,4.78
2022-12-01T16:49:45.825Z,4.79
2022-12-01T16:55:02.295Z,4.42
2022-12-01T16:57:30.605Z,4.54
2022-12-01T16:59:59.905Z,4.28
2022-12-01T17:02:27.950Z,4.41
2022-12-01T17:04:56.121Z,4.68
2022-12-01T17:07:24.092Z,4.75
2022-12-01T17:09:52.023Z,4.97
2022-12-01T17:12:20.307Z,4.92
2022-12-01T17:14:48.436Z,4.98
2022-12-01T17:17:18.041Z,5.01
2022-12-01T17:19:46.026Z,5.21
2022-12-01T17:22:13.904Z,5.09
2022-12-01T17:24:41.845Z,5.02
2022-12-01T17:27:10.124Z,4.75
2022-12-01T17:29:43.054Z,4.88
2022-12-01T17:32:14.443Z,4.82
2022-12-01T17:34:43.705Z,4.81
2022-12-01T17:37:16.128Z,4.64
2022-12-01T17:39:47.181Z,5.07
2022-12-01T17:42:15.074Z,5.12
2022-12-01T17:44:42.913Z,5.13
2022-12-01T17:47:11.517Z,4.96
2022-12-01T17:49:39.982Z,4.72
2022-12-01T17:52:09.364Z,4.38
2022-12-01T17:54:37.613Z,4.70
2022-12-01T17:57:07.423Z,4.73
2022-12-01T17:59:35.574Z,4.79
2022-12-01T18:02:03.592Z,4.96
2022-12-01T18:04:32.074Z,4.75
2022-12-01T18:07:00.642Z,4.83
2022-12-01T18:09:29.963Z,4.51
2022-12-01T18:12:00.956Z,4.68
2022-12-01T18:14:32.808Z,4.72
2022-12-01T18:17:00.821Z,4.73
2022-12-01T18:19:28.690Z,4.91
2022-12-01T18:21:56.586Z,4.44
2022-12-01T18:24:25.212Z,4.49
2022-12-01T18:26:56.157Z,4.74
2022-12-01T18:29:26.250Z,4.80
2022-12-01T18:31:55.192Z,4.78
2022-12-01T18:34:23.089Z,4.28
2022-12-01T18:36:50.980Z,4.54
2022-12-01T18:39:19.038Z,4.92
2022-12-01T18:41:47.072Z,4.79
2022-12-01T18:44:16.441Z,4.88
2022-12-01T18:46:44.369Z,4.87
2022-12-01T18:49:13.212Z,4.76
2022-12-01T18:51:41.372Z,4.65
2022-12-01T18:54:12.958Z,4.68
2022-12-01T18:56:40.922Z,4.99
2022-12-01T18:59:11.198Z,4.84
2022-12-01T19:01:44.162Z,4.71
2022-12-01T19:04:12.466Z,4.79
2022-12-01T19:06:42.829Z,4.66
2022-12-01T19:09:12.541Z,4.56
2022-12-01T19:11:41.686Z,4.56
2022-12-01T19:14:13.379Z,4.33
2022-12-01T19:16:42.806Z,4.51
2022-12-01T19:19:11.345Z,4.61
2022-12-01T19:21:39.344Z,4.66
2022-12-01T19:24:08.026Z,4.64
2022-12-01T19:26:35.995Z,4.58
2022-12-01T19:29:04.669Z,4.48
2022-12-01T19:31:32.717Z,4.65
2022-12-01T19:34:04.764Z,4.54
2022-12-01T19:36:33.097Z,4.47
2022-12-01T19:39:03.937Z,4.62
2022-12-01T19:41:35.368Z,4.48
2022-12-01T19:44:06.642Z,4.11
2022-12-01T19:46:34.894Z,4.00
2022-12-01T19:49:05.757Z,4.27
2022-12-01T19:51:35.644Z,4.41
2022-12-01T19:54:03.663Z,4.50
2022-12-01T19:56:32.391Z,4.27
2022-12-01T19:59:00.881Z,4.46
2022-12-01T20:01:29.441Z,4.17
2022-12-01T20:03:57.391Z,4.42
2022-12-01T20:06:28.164Z,4.36
2022-12-01T20:08:57.425Z,4.46
2022-12-01T20:11:26.099Z,4.47
2022-12-01T20:13:54.678Z,4.33
2022-12-01T20:16:24.336Z,4.11
2022-12-01T20:18:53.287Z,4.27
2022-12-01T20:21:22.971Z,4.35
2022-12-01T20:23:55.798Z,4.56
2022-12-01T20:26:28.925Z,4.49
2022-12-01T20:29:01.202Z,3.93
2022-12-01T20:31:31.178Z,4.21
2022-12-01T20:34:01.038Z,4.35
2022-12-01T20:36:29.601Z,4.06
2022-12-01T20:38:58.884Z,4.12
2022-12-01T20:41:27.001Z,3.90
2022-12-01T20:43:54.964Z,4.06
2022-12-01T20:46:23.063Z,4.15
2022-12-01T20:48:51.221Z,4.19
2022-12-01T20:51:19.587Z,4.16
2022-12-01T20:54:12.401Z,4.18
2022-12-01T20:56:36.968Z,4.51
2022-12-01T20:59:05.083Z,4.06
2022-12-01T21:01:33.316Z,4.32
2022-12-01T21:04:01.427Z,4.22
2022-12-01T21:06:29.891Z,4.41
2022-12-01T21:08:57.893Z,4.33
2022-12-01T21:11:41.410Z,4.49
2022-12-01T21:14:16.853Z,4.39
2022-12-01T21:16:48.336Z,4.48
2022-12-01T21:19:23.019Z,4.53
2022-12-01T21:21:50.987Z,4.30
2022-12-01T21:24:22.224Z,4.43
2022-12-01T21:26:53.325Z,4.02
2022-12-01T21:29:25.005Z,4.19
2022-12-01T21:31:54.854Z,4.52
2022-12-01T21:34:25.213Z,4.28
2022-12-01T21:36:57.325Z,4.22
2022-12-01T21:39:26.513Z,4.27
2022-12-01T21:41:57.949Z,4.16
2022-12-01T21:44:37.335Z,4.20
2022-12-01T21:47:16.948Z,4.24
2022-12-01T21:49:45.722Z,4.49
2022-12-01T21:52:18.056Z,4.40
2022-12-01T21:54:46.252Z,4.23
2022-12-01T21:57:30.482Z,4.36
2022-12-01T22:00:30.881Z,4.29
2022-12-01T22:03:37.241Z,4.57
2022-12-01T22:06:35.798Z,4.23
2022-12-01T22:09:13.794Z,4.17
2022-12-01T22:11:44.056Z,4.16
2022-12-01T22:14:16.973Z,4.11
2022-12-01T22:16:56.442Z,4.11
2022-12-01T22:19:32.695Z,3.96
2022-12-01T22:22:02.714Z,3.82
2022-12-01T22:24:35.569Z,3.94
2022-12-01T22:27:28.341Z,3.67
2022-12-01T22:30:01.844Z,3.68
2022-12-01T22:32:45.545Z,3.94
2022-12-01T22:35:23.285Z,4.07
2022-12-01T22:37:53.573Z,3.97
2022-12-01T22:40:40.189Z,3.60
2022-12-01T22:43:28.198Z,3.83
2022-12-01T22:46:08.332Z,3.62
2022-12-01T22:48:41.699Z,3.58
2022-12-01T22:51:22.672Z,3.84
2022-12-01T22:53:52.861Z,3.75
2022-12-01T22:56:28.039Z,3.61
2022-12-01T22:58:56.274Z,3.64
2022-12-01T23:01:28.112Z,3.50
2022-12-01T23:04:09.540Z,3.45
2022-12-01T23:07:03.522Z,3.61
2022-12-01T23:09:37.876Z,3.67
2022-12-01T23:12:25.747Z,3.02
2022-12-01T23:14:55.518Z,3.22
2022-12-01T23:17:26.286Z,3.29
2022-12-01T23:20:13.544Z,3.44
2022-12-01T23:22:41.728Z,3.05
2022-12-01T23:25:14.621Z,3.30
2022-12-01T23:27:43.296Z,3.03
2022-12-01T23:30:12.917Z,2.88
2022-12-01T23:32:41.016Z,2.97
2022-12-01T23:35:16.542Z,3.30
2022-12-01T23:37:47.497Z,3.20
2022-12-01T23:40:20.708Z,3.23
2022-12-01T23:42:49.212Z,2.60
2022-12-01T23:45:20.568Z,3.02
2022-12-01T23:47:48.835Z,3.15
2022-12-01T23:50:22.071Z,3.28
2022-12-01T23:52:50.359Z,3.32
2022-12-01T23:55:22.894Z,3.29
2022-12-01T23:57:52.050Z,3.09
